createdAt,value
2019-03-13T00:00:28.425Z,85.27
2019-03-13T00:02:58.445Z,85.27
2019-03-13T00:05:28.393Z,85.32
2019-03-13T00:07:58.181Z,85.11
2019-03-13T00:10:28.107Z,85.23
2019-03-13T00:12:58.283Z,85.19
2019-03-13T00:15:28.209Z,85.23
2019-03-13T00:17:58.359Z,85.15
2019-03-13T00:20:29.587Z,85.11
2019-03-13T00:22:59.165Z,85.12
2019-03-13T00:25:28.872Z,84.93
2019-03-13T00:27:59.213Z,84.94
2019-03-13T00:30:28.854Z,84.95
2019-03-13T00:32:58.647Z,85.03
2019-03-13T00:35:28.509Z,84.81
2019-03-13T00:37:58.450Z,84.97
2019-03-13T00:40:28.348Z,84.79
2019-03-13T00:42:58.286Z,84.87
2019-03-13T00:45:28.277Z,84.74
2019-03-13T00:47:58.121Z,84.89
2019-03-13T00:50:30.607Z,84.99
2019-03-13T00:53:00.399Z,84.93
2019-03-13T00:55:30.507Z,85.14
2019-03-13T00:58:00.205Z,85.11
2019-03-13T01:01:00.878Z,85.07
2019-03-13T01:03:44.281Z,84.95
2019-03-13T01:06:18.189Z,85.11
2019-03-13T01:08:47.799Z,85.09
2019-03-13T01:11:17.411Z,85.07
2019-03-13T01:13:47.111Z,85.11
2019-03-13T01:16:16.788Z,85.04
2019-03-13T01:18:47.089Z,85.20
2019-03-13T01:21:16.781Z,85.10
2019-03-13T01:23:46.243Z,84.98
2019-03-13T01:26:15.818Z,84.99
2019-03-13T01:28:45.455Z,84.88
2019-03-13T01:31:39.814Z,84.90
2019-03-13T01:34:22.450Z,85.04
2019-03-13T01:36:51.915Z,85.12
2019-03-13T01:39:21.561Z,85.13
2019-03-13T01:41:51.082Z,84.89
2019-03-13T01:44:20.626Z,84.96
2019-03-13T01:46:50.190Z,85.10
2019-03-13T01:49:19.785Z,84.87
2019-03-13T01:51:49.332Z,85.04
2019-03-13T01:54:19.590Z,85.10
2019-03-13T01:56:49.156Z,85.13
2019-03-13T01:59:18.708Z,85.17
2019-03-13T02:01:48.239Z,85.15
2019-03-13T02:04:17.922Z,85.18
2019-03-13T02:06:47.368Z,85.18
2019-03-13T02:09:17.019Z,85.22
2019-03-13T02:11:46.586Z,85.30
2019-03-13T02:14:16.166Z,85.18
2019-03-13T02:16:45.821Z,85.09
2019-03-13T02:19:15.346Z,85.05
2019-03-13T02:21:44.898Z,85.14
2019-03-13T02:24:14.530Z,85.16
2019-03-13T02:26:44.189Z,85.20
2019-03-13T02:29:13.772Z,85.27
2019-03-13T02:31:43.385Z,85.19
2019-03-13T02:34:13.037Z,85.09
2019-03-13T02:36:42.657Z,85.00
2019-03-13T02:39:12.355Z,85.16
2019-03-13T02:41:41.920Z,85.07
2019-03-13T02:44:11.531Z,85.01
2019-03-13T02:46:41.181Z,85.08
2019-03-13T02:49:10.817Z,84.98
2019-03-13T02:51:40.309Z,85.07
2019-03-13T02:54:09.983Z,85.11
2019-03-13T02:56:39.744Z,84.95
2019-03-13T02:59:09.480Z,85.06
2019-03-13T03:01:53.358Z,84.97
2019-03-13T03:04:22.984Z,85.08
2019-03-13T03:06:52.555Z,85.11
2019-03-13T03:09:22.115Z,84.97
2019-03-13T03:11:51.654Z,85.12
2019-03-13T03:14:21.287Z,85.16
2019-03-13T03:16:50.892Z,85.11
2019-03-13T03:19:20.500Z,85.21
2019-03-13T03:21:50.017Z,85.30
2019-03-13T03:24:19.681Z,85.31
2019-03-13T03:26:50.952Z,85.22
2019-03-13T03:29:20.748Z,85.25
2019-03-13T03:31:50.478Z,85.36
2019-03-13T03:34:20.076Z,85.31
2019-03-13T03:36:49.759Z,85.38
2019-03-13T03:39:19.402Z,85.42
2019-03-13T03:41:48.905Z,85.39
2019-03-13T03:44:18.555Z,85.37
2019-03-13T03:46:48.137Z,85.47
2019-03-13T03:49:17.753Z,85.30
2019-03-13T03:51:47.313Z,85.34
2019-03-13T03:54:17.050Z,85.34
2019-03-13T03:56:47.120Z,85.29
2019-03-13T03:59:16.787Z,85.42
2019-03-13T04:01:46.383Z,85.27
2019-03-13T04:04:15.933Z,85.42
2019-03-13T04:06:45.586Z,85.53
2019-03-13T04:09:15.160Z,85.70
2019-03-13T04:11:44.795Z,85.57
2019-03-13T04:14:14.820Z,85.56
2019-03-13T04:16:44.353Z,85.65
2019-03-13T04:19:13.948Z,86.04
2019-03-13T04:21:43.609Z,85.92
2019-03-13T04:24:13.200Z,85.82
2019-03-13T04:26:45.996Z,85.65
2019-03-13T04:29:15.701Z,85.67
2019-03-13T04:31:45.323Z,85.57
2019-03-13T04:34:15.004Z,85.70
2019-03-13T04:36:44.557Z,85.71
2019-03-13T04:39:14.203Z,85.67
2019-03-13T04:41:43.867Z,85.77
2019-03-13T04:44:13.382Z,85.84
2019-03-13T04:46:42.897Z,85.99
2019-03-13T04:49:12.415Z,85.90
2019-03-13T04:51:42.023Z,85.97
2019-03-13T04:54:11.584Z,86.05
2019-03-13T04:56:41.191Z,86.19
2019-03-13T04:59:10.998Z,86.11
2019-03-13T05:01:40.525Z,86.06
2019-03-13T05:04:10.173Z,86.14
2019-03-13T05:06:39.790Z,86.25
2019-03-13T05:09:11.176Z,86.22
2019-03-13T05:11:40.691Z,86.20
2019-03-13T05:14:10.288Z,86.15
2019-03-13T05:16:39.848Z,86.08
2019-03-13T05:19:09.498Z,85.99
2019-03-13T05:21:39.341Z,85.95
2019-03-13T05:24:08.920Z,85.95
2019-03-13T05:26:38.612Z,85.88
2019-03-13T05:29:08.289Z,85.76
2019-03-13T05:31:37.980Z,85.89
2019-03-13T05:34:07.562Z,85.85
2019-03-13T05:36:38.470Z,85.95
2019-03-13T05:39:08.747Z,85.87
2019-03-13T05:41:38.509Z,85.79
2019-03-13T05:44:08.375Z,85.84
2019-03-13T05:46:37.950Z,85.84
2019-03-13T05:49:07.873Z,85.74
2019-03-13T05:51:37.486Z,85.81
2019-03-13T05:54:07.168Z,85.85
2019-03-13T05:56:36.771Z,85.83
2019-03-13T05:59:06.401Z,85.92
2019-03-13T06:01:36.202Z,86.01
2019-03-13T06:04:05.868Z,85.98
2019-03-13T06:06:35.510Z,86.00
2019-03-13T06:09:06.536Z,86.03
2019-03-13T06:11:36.348Z,86.09
2019-03-13T06:14:07.855Z,86.06
2019-03-13T06:16:40.134Z,86.14
2019-03-13T06:19:09.949Z,86.34
2019-03-13T06:21:39.532Z,86.32
2019-03-13T06:24:09.014Z,86.21
2019-03-13T06:26:38.978Z,86.34
2019-03-13T06:29:11.915Z,86.22
2019-03-13T06:31:42.265Z,86.22
2019-03-13T06:34:12.221Z,86.18
2019-03-13T06:36:41.967Z,86.12
2019-03-13T06:39:14.593Z,86.25
2019-03-13T06:41:44.212Z,86.19
2019-03-13T06:44:13.904Z,86.32
2019-03-13T06:46:43.572Z,86.38
2019-03-13T06:49:13.234Z,86.36
2019-03-13T06:51:42.723Z,86.22
2019-03-13T06:54:12.326Z,86.26
2019-03-13T06:56:41.909Z,86.34
2019-03-13T06:59:34.498Z,86.46
2019-03-13T07:02:29.031Z,86.52
2019-03-13T07:05:12.028Z,86.46
2019-03-13T07:08:02.034Z,86.41
2019-03-13T07:10:50.299Z,86.36
2019-03-13T07:13:32.870Z,86.18
2019-03-13T07:16:30.709Z,86.33
2019-03-13T07:19:25.569Z,86.69
2019-03-13T07:22:22.897Z,86.62
2019-03-13T07:25:23.748Z,86.50
2019-03-13T07:28:30.513Z,86.38
2019-03-13T07:31:17.613Z,86.19
2019-03-13T07:34:04.939Z,86.27
2019-03-13T07:36:53.744Z,86.12
2019-03-13T07:42:54.476Z,86.16
2019-03-13T07:45:33.694Z,86.42
2019-03-13T07:51:42.702Z,86.15
2019-03-13T07:54:38.128Z,85.71
2019-03-13T07:57:35.918Z,86.15
2019-03-13T08:03:25.184Z,85.76
2019-03-13T08:10:20.782Z,85.46
2019-03-13T08:13:08.042Z,85.46
2019-03-13T08:15:59.287Z,85.56
2019-03-13T08:18:49.248Z,85.56
2019-03-13T08:21:52.885Z,85.02
2019-03-13T08:24:45.303Z,85.29
2019-03-13T08:27:42.858Z,85.29
2019-03-13T08:30:28.899Z,85.04
2019-03-13T08:33:23.233Z,85.00
2019-03-13T08:36:23.791Z,84.88
2019-03-13T08:39:12.231Z,84.88
2019-03-13T08:42:03.488Z,84.77
2019-03-13T08:44:58.119Z,84.91
2019-03-13T08:47:45.507Z,85.09
2019-03-13T08:50:37.947Z,85.26
2019-03-13T08:53:14.930Z,85.33
2019-03-13T08:56:00.917Z,85.30
2019-03-13T08:58:51.824Z,85.22
2019-03-13T09:01:39.912Z,85.08
2019-03-13T09:04:33.299Z,85.42
2019-03-13T09:07:21.332Z,85.90
2019-03-13T09:10:05.124Z,85.90
2019-03-13T09:12:43.563Z,85.31
2019-03-13T09:15:26.522Z,85.31
2019-03-13T09:18:16.008Z,85.66
2019-03-13T09:21:11.252Z,85.73
2019-03-13T09:23:58.628Z,85.73
2019-03-13T09:26:52.396Z,85.66
2019-03-13T09:29:49.569Z,85.71
2019-03-13T09:32:53.352Z,85.71
2019-03-13T09:35:48.058Z,85.69
2019-03-13T09:38:27.277Z,85.52
2019-03-13T09:41:09.318Z,85.60
2019-03-13T09:43:59.685Z,85.55
2019-03-13T09:46:52.653Z,85.63
2019-03-13T09:49:32.822Z,85.63
2019-03-13T09:52:17.528Z,85.28
2019-03-13T09:55:05.968Z,85.76
2019-03-13T09:57:54.739Z,85.99
2019-03-13T10:00:31.807Z,85.99
2019-03-13T10:03:19.169Z,85.55
2019-03-13T10:06:11.004Z,85.28
2019-03-13T10:09:02.677Z,85.28
2019-03-13T10:11:45.556Z,85.74
2019-03-13T10:14:43.373Z,85.74
2019-03-13T10:17:23.746Z,85.64
2019-03-13T10:20:25.017Z,85.73
2019-03-13T10:23:16.331Z,86.42
2019-03-13T10:26:05.280Z,86.42
2019-03-13T10:28:52.500Z,85.92
2019-03-13T10:31:39.106Z,86.03
2019-03-13T10:34:39.995Z,85.64
2019-03-13T10:37:23.615Z,85.53
2019-03-13T10:40:21.765Z,86.15
2019-03-13T10:43:09.016Z,86.15
2019-03-13T10:46:00.335Z,85.98
2019-03-13T10:48:53.215Z,85.59
2019-03-13T10:51:40.172Z,85.59
2019-03-13T10:54:25.380Z,86.08
2019-03-13T10:57:13.814Z,85.93
2019-03-13T11:00:04.413Z,85.93
2019-03-13T11:02:45.768Z,85.61
2019-03-13T11:05:34.496Z,84.97
2019-03-13T11:08:09.530Z,84.97
2019-03-13T11:10:52.163Z,85.14
2019-03-13T11:13:44.905Z,85.11
2019-03-13T11:16:24.870Z,85.26
2019-03-13T11:19:09.945Z,85.13
2019-03-13T11:21:46.428Z,85.22
2019-03-13T11:24:27.662Z,85.16
2019-03-13T11:27:03.463Z,84.96
2019-03-13T11:29:52.345Z,84.96
2019-03-13T11:32:39.865Z,84.97
2019-03-13T11:35:31.272Z,85.41
2019-03-13T11:38:18.622Z,84.81
2019-03-13T11:41:02.534Z,84.69
2019-03-13T11:43:42.708Z,84.69
2019-03-13T11:46:37.598Z,84.95
2019-03-13T11:49:14.893Z,84.92
2019-03-13T11:52:03.153Z,84.82
2019-03-13T11:54:57.939Z,85.11
2019-03-13T11:57:52.227Z,85.11
2019-03-13T12:00:47.080Z,85.46
2019-03-13T12:03:48.057Z,84.90
2019-03-13T12:06:37.695Z,84.90
2019-03-13T12:09:27.117Z,85.24
2019-03-13T12:12:25.106Z,85.81
2019-03-13T12:15:12.398Z,85.81
2019-03-13T12:18:04.261Z,85.73
2019-03-13T12:20:51.540Z,85.67
2019-03-13T12:23:49.641Z,85.46
2019-03-13T12:26:38.456Z,85.46
2019-03-13T12:29:30.266Z,85.22
2019-03-13T12:32:18.815Z,84.77
2019-03-13T12:35:10.571Z,84.77
2019-03-13T12:37:53.861Z,85.08
2019-03-13T12:40:41.953Z,85.11
2019-03-13T12:43:39.989Z,84.67
2019-03-13T12:46:29.125Z,84.67
2019-03-13T12:49:10.840Z,84.76
2019-03-13T12:51:58.101Z,84.79
2019-03-13T12:54:38.255Z,84.47
2019-03-13T12:57:27.203Z,84.47
2019-03-13T13:00:16.259Z,84.37
2019-03-13T13:03:07.934Z,84.02
2019-03-13T13:05:53.631Z,84.02
2019-03-13T13:08:45.689Z,83.66
2019-03-13T13:11:43.756Z,83.38
2019-03-13T13:14:44.146Z,83.38
2019-03-13T13:17:31.516Z,83.82
2019-03-13T13:20:01.444Z,83.86
2019-03-13T13:22:31.366Z,84.00
2019-03-13T13:25:00.895Z,84.00
2019-03-13T13:27:30.516Z,83.46
2019-03-13T13:30:00.358Z,83.70
2019-03-13T13:32:30.156Z,83.70
2019-03-13T13:34:59.865Z,83.28
2019-03-13T13:37:29.700Z,83.59
2019-03-13T13:39:59.479Z,83.50
2019-03-13T13:42:29.055Z,83.25
2019-03-13T13:44:59.095Z,82.84
2019-03-13T13:47:28.686Z,82.74
2019-03-13T13:50:00.141Z,82.66
2019-03-13T13:52:29.835Z,83.02
2019-03-13T13:54:59.565Z,83.02
2019-03-13T13:57:29.384Z,82.40
2019-03-13T13:59:59.325Z,82.20
2019-03-13T14:02:29.198Z,82.29
2019-03-13T14:04:58.835Z,82.50
2019-03-13T14:07:28.595Z,82.43
2019-03-13T14:09:58.434Z,82.41
2019-03-13T14:12:28.362Z,82.30
2019-03-13T14:14:58.246Z,82.30
2019-03-13T14:17:27.958Z,82.15
2019-03-13T14:19:57.526Z,82.32
2019-03-13T14:22:28.434Z,82.18
2019-03-13T14:24:58.230Z,82.09
2019-03-13T14:27:28.123Z,82.01
2019-03-13T14:29:58.058Z,81.93
2019-03-13T14:32:27.981Z,81.87
2019-03-13T14:34:57.813Z,81.80
2019-03-13T14:37:27.570Z,81.93
2019-03-13T14:39:57.876Z,82.06
2019-03-13T14:42:27.705Z,82.43
2019-03-13T14:45:00.360Z,82.57
2019-03-13T14:47:30.367Z,82.75
2019-03-13T14:50:00.410Z,82.76
2019-03-13T14:52:30.097Z,82.84
2019-03-13T14:54:59.602Z,82.76
2019-03-13T14:57:29.342Z,82.54
2019-03-13T14:59:58.884Z,82.75
2019-03-13T15:02:28.572Z,82.94
2019-03-13T15:04:58.549Z,82.87
2019-03-13T15:07:28.513Z,82.92
2019-03-13T15:09:58.361Z,82.37
2019-03-13T15:12:28.412Z,82.37
2019-03-13T15:14:58.228Z,82.73
2019-03-13T15:17:28.311Z,82.76
2019-03-13T15:19:58.149Z,82.64
2019-03-13T15:22:27.948Z,82.55
2019-03-13T15:24:58.312Z,82.59
2019-03-13T15:27:28.208Z,82.59
2019-03-13T15:29:59.275Z,82.61
2019-03-13T15:32:29.161Z,82.54
2019-03-13T15:34:58.816Z,82.59
2019-03-13T15:37:28.447Z,82.48
2019-03-13T15:39:58.402Z,82.35
2019-03-13T15:42:28.162Z,82.91
2019-03-13T15:44:58.027Z,82.91
2019-03-13T15:47:28.140Z,82.17
2019-03-13T15:49:58.169Z,82.01
2019-03-13T15:52:28.047Z,82.01
2019-03-13T15:54:57.751Z,82.40
2019-03-13T15:57:27.818Z,82.40
2019-03-13T15:59:57.494Z,82.33
2019-03-13T16:02:27.498Z,82.33
2019-03-13T16:04:57.231Z,81.88
2019-03-13T16:07:27.121Z,82.12
2019-03-13T16:09:57.088Z,82.16
2019-03-13T16:12:27.121Z,82.20
2019-03-13T16:14:57.162Z,81.87
2019-03-13T16:17:27.009Z,81.87
2019-03-13T16:19:56.955Z,82.18
2019-03-13T16:22:27.076Z,82.17
2019-03-13T16:24:57.114Z,82.23
2019-03-13T16:27:27.143Z,81.98
2019-03-13T16:29:59.754Z,82.07
2019-03-13T16:32:29.357Z,81.94
2019-03-13T16:34:58.893Z,82.15
2019-03-13T16:37:28.613Z,81.83
2019-03-13T16:39:58.316Z,82.49
2019-03-13T16:42:28.183Z,82.49
2019-03-13T16:44:57.950Z,82.88
2019-03-13T16:47:29.250Z,82.88
2019-03-13T16:49:59.180Z,82.61
2019-03-13T16:52:29.213Z,82.66
2019-03-13T16:55:02.083Z,82.46
2019-03-13T16:57:31.973Z,83.06
2019-03-13T17:00:01.815Z,83.06
2019-03-13T17:02:31.489Z,82.81
2019-03-13T17:05:00.973Z,82.81
2019-03-13T17:07:30.748Z,82.96
2019-03-13T17:10:00.603Z,82.96
2019-03-13T17:12:30.864Z,83.11
2019-03-13T17:15:00.975Z,83.19
2019-03-13T17:17:30.658Z,83.19
2019-03-13T17:20:00.393Z,83.40
2019-03-13T17:22:30.159Z,83.54
2019-03-13T17:25:00.158Z,83.67
2019-03-13T17:27:30.189Z,83.77
2019-03-13T17:30:00.354Z,83.95
2019-03-13T17:32:30.125Z,83.95
2019-03-13T17:34:59.824Z,83.82
2019-03-13T17:37:29.574Z,83.82
2019-03-13T17:39:59.205Z,84.02
2019-03-13T17:42:28.859Z,84.18
2019-03-13T17:44:58.867Z,84.37
2019-03-13T17:47:28.540Z,84.48
2019-03-13T17:49:58.545Z,84.61
2019-03-13T17:52:28.570Z,84.89
2019-03-13T17:54:58.437Z,84.61
2019-03-13T17:57:28.325Z,84.61
2019-03-13T17:59:58.006Z,84.60
2019-03-13T18:02:27.909Z,84.55
2019-03-13T18:04:59.876Z,84.67
2019-03-13T18:07:29.764Z,84.76
2019-03-13T18:09:59.419Z,85.13
2019-03-13T18:12:29.429Z,84.90
2019-03-13T18:14:59.775Z,85.38
2019-03-13T18:17:29.609Z,85.38
2019-03-13T18:19:59.184Z,85.11
2019-03-13T18:22:28.928Z,85.06
2019-03-13T18:24:58.606Z,85.20
2019-03-13T18:27:28.574Z,85.20
2019-03-13T18:30:00.372Z,85.21
2019-03-13T18:32:41.394Z,85.15
2019-03-13T18:35:01.957Z,85.21
2019-03-13T18:37:31.648Z,85.38
2019-03-13T18:40:01.496Z,85.28
2019-03-13T18:42:31.179Z,85.32
2019-03-13T18:45:01.098Z,85.42
2019-03-13T18:47:30.814Z,85.55
2019-03-13T18:50:00.559Z,85.74
2019-03-13T18:52:30.559Z,85.60
2019-03-13T18:55:00.383Z,85.60
2019-03-13T18:57:30.041Z,85.72
2019-03-13T18:59:59.735Z,85.89
2019-03-13T19:02:29.424Z,85.89
2019-03-13T19:04:58.967Z,85.93
2019-03-13T19:07:28.566Z,85.99
2019-03-13T19:09:58.351Z,86.24
2019-03-13T19:12:29.606Z,86.24
2019-03-13T19:14:59.455Z,86.15
2019-03-13T19:17:32.239Z,86.49
2019-03-13T19:20:01.914Z,86.49
2019-03-13T19:22:31.672Z,86.22
2019-03-13T19:25:01.359Z,86.27
2019-03-13T19:27:31.441Z,86.41
2019-03-13T19:30:01.333Z,86.73
2019-03-13T19:32:31.131Z,86.73
2019-03-13T19:35:03.424Z,86.47
2019-03-13T19:37:33.544Z,86.56
2019-03-13T19:40:03.184Z,86.56
2019-03-13T19:42:33.298Z,86.48
2019-03-13T19:45:06.294Z,86.51
2019-03-13T19:47:36.302Z,86.51
2019-03-13T19:50:08.467Z,86.35
2019-03-13T19:52:40.202Z,86.29
2019-03-13T19:55:12.515Z,86.32
2019-03-13T19:57:43.269Z,86.36
2019-03-13T20:00:16.654Z,86.29
2019-03-13T20:02:59.557Z,86.29
2019-03-13T20:05:22.047Z,86.25
2019-03-13T20:07:52.736Z,86.37
2019-03-13T20:10:23.853Z,86.17
2019-03-13T20:12:53.760Z,86.30
2019-03-13T20:15:26.343Z,86.19
2019-03-13T20:17:56.263Z,86.21
2019-03-13T20:20:26.093Z,86.54
2019-03-13T20:22:57.623Z,86.37
2019-03-13T20:25:27.422Z,86.19
2019-03-13T20:27:58.253Z,86.28
2019-03-13T20:30:28.674Z,86.30
2019-03-13T20:32:58.466Z,86.33
2019-03-13T20:35:28.271Z,86.23
2019-03-13T20:37:58.484Z,86.21
2019-03-13T20:40:28.367Z,86.32
2019-03-13T20:42:58.419Z,86.20
2019-03-13T20:45:28.596Z,86.63
2019-03-13T20:47:59.216Z,86.17
2019-03-13T20:50:36.469Z,86.17
2019-03-13T20:53:01.236Z,86.46
2019-03-13T20:55:30.821Z,86.44
2019-03-13T20:58:00.549Z,86.34
2019-03-13T21:00:34.413Z,86.34
2019-03-13T21:03:02.434Z,86.69
2019-03-13T21:05:35.213Z,86.46
2019-03-13T21:08:04.985Z,86.47
2019-03-13T21:10:36.532Z,86.67
2019-03-13T21:13:06.462Z,86.67
2019-03-13T21:15:36.599Z,86.71
2019-03-13T21:18:06.524Z,86.71
2019-03-13T21:20:39.382Z,86.80
2019-03-13T21:23:09.008Z,86.86
2019-03-13T21:25:38.835Z,86.90
2019-03-13T21:28:08.549Z,86.94
2019-03-13T21:30:38.484Z,86.47
2019-03-13T21:33:08.245Z,86.47
2019-03-13T21:35:38.114Z,86.72
2019-03-13T21:38:07.914Z,86.92
2019-03-13T21:40:37.851Z,86.92
2019-03-13T21:43:07.626Z,87.03
2019-03-13T21:45:41.525Z,87.05
2019-03-13T21:48:08.842Z,87.27
2019-03-13T21:50:38.451Z,87.07
2019-03-13T21:53:08.356Z,87.07
2019-03-13T21:55:38.027Z,87.12
2019-03-13T21:58:07.670Z,87.12
2019-03-13T22:00:39.475Z,87.26
2019-03-13T22:03:10.972Z,87.43
2019-03-13T22:05:41.811Z,87.43
2019-03-13T22:08:13.821Z,87.42
2019-03-13T22:10:45.970Z,87.52
2019-03-13T22:13:16.885Z,87.51
2019-03-13T22:15:47.387Z,87.44
2019-03-13T22:18:20.016Z,87.91
2019-03-13T22:20:50.358Z,87.39
2019-03-13T22:23:20.839Z,87.41
2019-03-13T22:25:50.430Z,87.41
2019-03-13T22:28:20.080Z,87.50
2019-03-13T22:30:50.002Z,87.60
2019-03-13T22:33:20.580Z,87.68
2019-03-13T22:35:50.805Z,87.59
2019-03-13T22:38:20.507Z,87.50
2019-03-13T22:40:50.582Z,87.82
2019-03-13T22:43:20.128Z,87.82
2019-03-13T22:45:50.205Z,87.54
2019-03-13T22:48:19.873Z,87.53
2019-03-13T22:50:49.468Z,87.31
2019-03-13T22:53:19.212Z,87.31
2019-03-13T22:55:49.001Z,87.44
2019-03-13T22:58:18.667Z,87.43
2019-03-13T23:01:06.164Z,87.48
2019-03-13T23:03:35.821Z,87.48
2019-03-13T23:06:05.720Z,87.63
2019-03-13T23:08:35.503Z,87.63
2019-03-13T23:11:05.262Z,87.69
2019-03-13T23:13:35.044Z,87.69
2019-03-13T23:16:05.443Z,87.48
2019-03-13T23:18:35.440Z,87.55
2019-03-13T23:21:05.161Z,87.53
2019-03-13T23:23:34.731Z,87.49
2019-03-13T23:26:04.319Z,87.48
2019-03-13T23:28:34.107Z,87.49
2019-03-13T23:31:04.394Z,87.39
2019-03-13T23:33:33.905Z,87.40
2019-03-13T23:36:03.558Z,87.33
2019-03-13T23:38:33.348Z,87.33
2019-03-13T23:41:02.962Z,87.45
2019-03-13T23:43:32.626Z,87.45
2019-03-13T23:46:02.232Z,87.48
2019-03-13T23:48:31.876Z,87.29
2019-03-13T23:51:01.580Z,87.29
2019-03-13T23:53:31.161Z,87.16
2019-03-13T23:56:00.837Z,87.16
2019-03-13T23:58:30.488Z,87.43
